Time;durP1;ratioP1;P1;durP2;ratioP2;P2;SDS_P1;SDS_P2;PMS_P1;PMS_P2;Temp;Humidity;BMP_temperature;BMP_pressure;BME280_temperature;BME280_humidity;BME280_pressure;Samples;Min_cycle;Max_cycle;Signal;HPM_P1;HPM_P2
2022/08/12 00:43:26;;;;;;;12.35;5.90;;;;;;;19.19;100.00;102132.47;7377799;19;20018;-78
2022/08/12 00:48:43;;;;;;;12.25;6.10;;;;;;;19.15;100.00;102120.06;7374217;19;20466;-77
2022/08/12 00:51:13;;;;;;;11.30;6.30;;;;;;;19.15;100.00;102125.38;7382461;19;20011;-77
2022/08/12 00:53:47;;;;;;;9.70;5.80;;;;;;;19.12;100.00;102131.59;7374262;19;20074;-77
2022/08/12 00:56:18;;;;;;;13.30;6.57;;;;;;;19.11;100.00;102134.25;7380586;19;20041;-77
2022/08/12 00:58:52;;;;;;;12.88;6.38;;;;;;;19.08;100.00;102132.47;7376857;19;20750;-77
2022/08/12 01:01:24;;;;;;;13.55;5.85;;;;;;;19.05;100.00;102124.50;7383578;19;20423;-77
2022/08/12 01:12:43;;;;;;;10.55;5.80;;;;;;;18.93;100.00;102128.06;7383329;19;20018;-78
2022/08/12 01:15:15;;;;;;;10.73;6.13;;;;;;;18.85;100.00;102134.28;7382059;19;20011;-78
2022/08/12 01:17:46;;;;;;;11.70;6.47;;;;;;;18.79;100.00;102136.94;7381733;19;20011;-78
2022/08/12 01:20:30;;;;;;;10.80;6.22;;;;;;;18.74;100.00;102131.63;7380821;19;20468;-76
2022/08/12 01:23:39;;;;;;;11.07;6.35;;;;;;;18.69;100.00;102136.06;7382010;19;20024;-77
2022/08/12 01:26:18;;;;;;;9.57;5.90;;;;;;;18.66;100.00;102140.50;7384496;19;20894;-76
2022/08/12 01:28:50;;;;;;;17.17;6.70;;;;;;;18.59;100.00;102135.16;7386348;19;20471;-77
2022/08/12 01:31:29;;;;;;;11.15;6.38;;;;;;;18.59;100.00;102142.22;7386510;19;20013;-77
2022/08/12 01:34:06;;;;;;;11.95;6.22;;;;;;;18.56;100.00;102135.16;7384338;19;20022;-77
2022/08/12 01:37:01;;;;;;;13.38;6.63;;;;;;;18.57;100.00;102144.00;7383992;19;20010;-77
2022/08/12 01:39:36;;;;;;;17.67;7.40;;;;;;;18.55;100.00;102130.72;7380084;19;20037;-77
2022/08/12 01:42:12;;;;;;;13.13;7.25;;;;;;;18.58;100.00;102135.16;7381639;19;20017;-76
2022/08/12 01:44:43;;;;;;;13.38;7.10;;;;;;;18.59;100.00;102129.84;7383207;19;20023;-77
2022/08/12 01:47:22;;;;;;;12.75;7.03;;;;;;;18.61;100.00;102128.09;7382257;19;20027;-77
2022/08/12 01:50:10;;;;;;;16.13;8.27;;;;;;;18.60;100.00;102126.31;7377476;19;20019;-78
2022/08/12 01:52:53;;;;;;;14.52;7.20;;;;;;;18.60;100.00;102121.00;7370541;19;20826;-77
2022/08/12 01:55:27;;;;;;;;;;;;;;;18.61;100.00;102122.78;7370776;19;20015;-78
2022/08/12 01:58:13;;;;;;;13.35;7.30;;;;;;;18.58;100.00;102111.22;7373969;19;19915;-78
2022/08/12 02:00:47;;;;;;;12.00;7.40;;;;;;;18.58;100.00;102117.44;7377783;19;20034;-78
2022/08/12 02:12:46;;;;;;;15.52;8.18;;;;;;;18.51;100.00;102105.03;7376125;19;20021;-77
2022/08/12 02:15:30;;;;;;;14.35;7.80;;;;;;;18.48;100.00;102107.69;7373052;19;20082;-77
2022/08/12 02:18:13;;;;;;;15.20;7.35;;;;;;;18.48;100.00;102113.00;7375672;19;20589;-77
2022/08/12 02:20:51;;;;;;;13.32;7.65;;;;;;;18.44;100.00;102103.25;7377607;19;20027;-77
2022/08/12 02:23:26;;;;;;;13.10;8.00;;;;;;;18.41;100.00;102105.91;7373988;19;20073;-76
2022/08/12 02:26:05;;;;;;;11.48;7.35;;;;;;;18.40;100.00;102109.44;7379386;19;20265;-77
2022/08/12 02:28:35;;;;;;;13.60;7.75;;;;;;;18.39;100.00;102105.00;7381276;19;20014;-77
2022/08/12 02:31:11;;;;;;;13.93;7.53;;;;;;;18.39;100.00;102106.78;7382917;19;20018;-77
2022/08/12 02:33:46;;;;;;;13.57;8.27;;;;;;;18.36;100.00;102110.31;7382373;19;20057;-77
2022/08/12 02:36:17;;;;;;;16.50;8.90;;;;;;;18.34;100.00;102106.78;7386056;19;20003;-77
2022/08/12 02:38:51;;;;;;;13.98;8.23;;;;;;;18.35;100.00;102097.94;7384594;19;20055;-77
2022/08/12 02:41:30;;;;;;;16.98;9.25;;;;;;;18.32;100.00;102095.28;7384937;19;20014;-76
2022/08/12 02:44:09;;;;;;;13.48;8.60;;;;;;;18.29;100.00;102089.97;7381180;19;20029;-76
2022/08/12 02:46:47;;;;;;;12.95;8.48;;;;;;;18.26;100.00;102089.94;7368510;19;20093;-77
2022/08/12 02:49:24;;;;;;;12.98;7.88;;;;;;;18.26;100.00;102093.50;7382822;19;20804;-76
2022/08/12 02:51:56;;;;;;;16.40;8.15;;;;;;;18.20;100.00;102087.28;7382682;19;20015;-77
2022/08/12 02:54:29;;;;;;;15.68;8.32;;;;;;;18.21;100.00;102094.38;7378852;19;20021;-76
2022/08/12 02:57:01;;;;;;;17.90;9.03;;;;;;;18.17;100.00;102090.81;7380179;19;20009;-79
2022/08/12 02:59:39;;;;;;;16.27;8.65;;;;;;;18.14;100.00;102087.28;7382087;19;20335;-78
2022/08/12 03:02:18;;;;;;;12.63;8.00;;;;;;;18.13;100.00;102089.03;7381742;19;20030;-76
2022/08/12 03:04:55;;;;;;;18.02;8.88;;;;;;;18.12;100.00;102084.63;7379024;19;20014;-76
2022/08/12 03:07:35;;;;;;;15.15;8.45;;;;;;;18.12;100.00;102089.03;7386581;19;20446;-76
2022/08/12 03:10:30;;;;;;;14.07;7.95;;;;;;;18.13;100.00;102089.03;7390410;19;20066;-77
2022/08/12 03:13:09;;;;;;;15.45;8.65;;;;;;;18.12;100.00;102078.41;7386510;19;20026;-77
2022/08/12 03:15:41;;;;;;;16.02;8.50;;;;;;;18.08;100.00;102077.53;7389720;19;20015;-78
2022/08/12 03:18:22;;;;;;;19.70;9.30;;;;;;;18.08;100.00;102080.19;7391566;19;20011;-77
2022/08/12 03:21:00;;;;;;;15.20;9.07;;;;;;;18.09;100.00;102073.09;7389324;19;20007;-79
2022/08/12 03:23:32;;;;;;;16.43;8.73;;;;;;;18.10;100.00;102081.06;7389592;19;20015;-76
2022/08/12 03:26:05;;;;;;;14.77;8.23;;;;;;;18.08;100.00;102074.00;7391661;19;20037;-77
2022/08/12 03:28:56;;;;;;;16.73;8.48;;;;;;;18.06;100.00;102075.75;7387120;19;20117;-78
2022/08/12 03:31:35;;;;;;;14.50;8.38;;;;;;;18.05;100.00;102076.63;7384371;19;20018;-78
2022/08/12 03:34:11;;;;;;;17.00;8.85;;;;;;;18.03;100.00;102071.31;7384445;19;20026;-77
2022/08/12 03:36:43;;;;;;;14.43;8.88;;;;;;;18.04;100.00;102073.09;7384768;19;20037;-78
2022/08/12 03:39:31;;;;;;;16.45;9.15;;;;;;;18.04;100.00;102070.44;7383815;19;20403;-78
2022/08/12 03:42:24;;;;;;;15.32;8.32;;;;;;;18.03;100.00;102078.41;7384700;19;20015;-78
2022/08/12 04:02:42;;;;;;;16.48;10.15;;;;;;;17.90;100.00;102065.09;7381466;19;20035;-76
2022/08/12 04:05:32;;;;;;;16.55;8.93;;;;;;;17.90;100.00;102059.78;7377989;19;20021;-77
2022/08/12 04:08:36;;;;;;;19.65;9.95;;;;;;;17.93;100.00;102057.16;7380652;19;20006;-77
2022/08/12 04:14:07;;;;;;;;;;;;;;;17.93;100.00;102065.09;7377480;19;20049;-76
2022/08/12 04:16:41;;;;;;;15.38;8.40;;;;;;;17.93;100.00;102067.75;7378659;19;20266;-76
2022/08/12 04:19:12;;;;;;;15.40;8.77;;;;;;;17.92;100.00;102068.63;7380491;19;20439;-77
2022/08/12 04:21:48;;;;;;;16.80;8.63;;;;;;;17.92;100.00;102058.03;7382980;19;20014;-77
2022/08/12 04:24:43;;;;;;;14.55;8.93;;;;;;;17.90;100.00;102057.13;7379959;19;20594;-77
2022/08/12 04:27:40;;;;;;;16.30;8.57;;;;;;;17.89;100.00;102058.03;7379205;19;20003;-76
2022/08/12 04:30:16;;;;;;;15.15;8.95;;;;;;;17.86;100.00;102068.63;7383170;19;20014;-77
2022/08/12 04:33:07;;;;;;;14.90;7.82;;;;;;;17.88;100.00;102072.16;7382172;19;20089;-76
2022/08/12 04:35:47;;;;;;;15.68;8.52;;;;;;;17.89;100.00;102073.94;7379886;19;20014;-75
2022/08/12 04:38:30;;;;;;;14.73;8.52;;;;;;;17.85;100.00;102063.31;7384479;19;20015;-76
2022/08/12 04:41:17;;;;;;;17.65;9.32;;;;;;;17.83;100.00;102071.28;7382925;19;20006;-77
2022/08/12 04:44:02;;;;;;;16.75;9.50;;;;;;;17.86;100.00;102073.03;7381418;19;20750;-77
2022/08/12 04:46:35;;;;;;;15.73;8.55;;;;;;;17.86;100.00;102073.03;7381994;19;20010;-78
2022/08/12 04:49:10;;;;;;;13.45;7.97;;;;;;;17.85;100.00;102079.22;7384751;19;20354;-77
2022/08/12 04:51:42;;;;;;;15.30;9.23;;;;;;;17.84;100.00;102072.16;7389229;19;20027;-77
2022/08/12 04:54:36;;;;;;;16.50;9.13;;;;;;;17.86;100.00;102070.38;7389109;19;20011;-76
2022/08/12 04:57:14;;;;;;;14.70;9.10;;;;;;;17.86;100.00;102065.97;7385295;19;20475;-77
2022/08/12 04:59:56;;;;;;;14.65;9.63;;;;;;;17.84;100.00;102066.84;7388459;19;20498;-77
2022/08/12 05:02:31;;;;;;;17.30;8.88;;;;;;;17.87;100.00;102070.41;7391861;19;20034;-79
2022/08/12 05:05:22;;;;;;;21.83;9.40;;;;;;;17.89;100.00;102070.41;7386771;19;20010;-77
2022/08/12 05:08:18;;;;;;;16.58;8.82;;;;;;;17.89;100.00;102071.28;7392915;19;20014;-77
2022/08/12 05:10:54;;;;;;;18.40;10.15;;;;;;;17.92;100.00;102059.78;7395859;19;20166;-77
2022/08/12 05:13:37;;;;;;;15.32;8.30;;;;;;;17.96;100.00;102070.41;7392718;19;20409;-80
2022/08/12 05:16:13;;;;;;;17.45;9.90;;;;;;;18.00;100.00;102067.78;7390406;19;20030;-80
2022/08/12 05:18:43;;;;;;;14.15;8.23;;;;;;;18.06;100.00;102076.63;7392576;19;20470;-80
2022/08/12 05:21:16;;;;;;;15.88;10.10;;;;;;;18.14;100.00;102074.00;7387416;19;20489;-78
2022/08/12 05:23:48;;;;;;;17.30;9.30;;;;;;;18.27;100.00;102071.38;7378991;19;20505;-77
2022/08/12 05:26:23;;;;;;;17.23;8.90;;;;;;;18.39;100.00;102074.91;7380699;19;20026;-77
2022/08/12 05:29:13;;;;;;;15.93;8.98;;;;;;;18.49;100.00;102069.59;7378975;19;20010;-77
2022/08/12 05:32:05;;;;;;;19.23;9.38;;;;;;;18.61;100.00;102079.38;7378988;19;20014;-77
2022/08/12 05:34:45;;;;;;;16.52;9.02;;;;;;;18.70;100.00;102082.03;7381787;19;20042;-77
2022/08/12 05:40:08;;;;;;;17.55;9.18;;;;;;;18.95;100.00;102089.06;7374357;19;20514;-78
2022/08/12 05:42:43;;;;;;;13.23;8.52;;;;;;;19.10;100.00;102087.28;7376703;19;20033;-77
2022/08/12 05:45:23;;;;;;;;;;;;;;;19.31;100.00;102087.22;7377047;19;20654;-77
2022/08/12 05:48:04;;;;;;;15.90;8.93;;;;;;;19.48;100.00;102087.16;7373868;19;20367;-76
2022/08/12 05:50:45;;;;;;;15.60;8.65;;;;;;;19.62;100.00;102090.69;7373025;19;20094;-79
2022/08/12 05:53:19;;;;;;;19.60;9.23;;;;;;;19.84;100.00;102089.66;7368182;19;20637;-78
2022/08/12 05:56:35;;;;;;;16.50;8.23;;;;;;;20.01;100.00;102088.69;7375301;19;20029;-77
2022/08/12 05:59:16;;;;;;;13.60;8.95;;;;;;;20.16;100.00;102091.25;7372150;19;20143;-77
2022/08/12 06:02:25;;;;;;;17.23;8.77;;;;;;;20.36;100.00;102089.34;7379210;19;20010;-77
2022/08/12 06:05:14;;;;;;;15.32;8.70;;;;;;;20.47;100.00;102079.53;7381999;19;20070;-77
2022/08/12 06:07:46;;;;;;;14.88;7.80;;;;;;;20.58;100.00;102081.22;7386795;19;20010;-77
2022/08/12 06:10:39;;;;;;;15.93;8.60;;;;;;;20.84;100.00;102076.50;7384809;19;20013;-78
2022/08/12 06:13:14;;;;;;;13.38;8.10;;;;;;;20.98;100.00;102073.72;7380853;19;20045;-78
2022/08/12 06:16:10;;;;;;;17.88;8.65;;;;;;;21.09;100.00;102066.47;7383552;19;20018;-77
2022/08/12 06:18:48;;;;;;;12.13;7.80;;;;;;;21.14;100.00;102072.66;7385553;19;20411;-77
2022/08/12 06:21:23;;;;;;;14.30;8.55;;;;;;;21.37;100.00;102070.63;7381875;19;20050;-77
2022/08/12 06:23:56;;;;;;;14.85;8.88;;;;;;;21.53;100.00;102079.34;7390064;19;20015;-77
2022/08/12 06:26:40;;;;;;;18.33;8.30;;;;;;;21.70;100.00;102074.69;7387840;19;20019;-77
2022/08/12 06:29:16;;;;;;;13.57;8.10;;;;;;;21.84;100.00;102083.34;7386065;19;20170;-79
2022/08/12 06:32:07;;;;;;;14.38;7.60;;;;;;;22.09;100.00;102073.25;7387123;19;20014;-78
2022/08/12 06:34:47;;;;;;;17.05;8.80;;;;;;;22.23;99.65;102075.69;7388062;19;20073;-78
2022/08/12 06:37:44;;;;;;;14.85;9.13;;;;;;;22.33;98.30;102071.97;7391387;19;20017;-78
2022/08/12 06:42:46;;;;;;;18.58;10.32;;;;;;;22.53;97.53;102074.31;7393699;19;20014;-77
2022/08/12 06:43:14;;;;;;;14.13;8.50;;;;;;;22.72;96.67;102065.09;7395540;19;20574;-77
2022/08/12 06:45:48;;;;;;;14.55;8.45;;;;;;;22.93;95.71;102074.50;7388214;19;20029;-77
2022/08/12 06:48:19;;;;;;;16.13;8.35;;;;;;;23.11;93.95;102073.28;7389039;19;20652;-78
2022/08/12 06:50:53;;;;;;;14.05;8.35;;;;;;;23.33;91.29;102071.97;7387449;19;20086;-76
2022/08/12 06:53:25;;;;;;;13.82;7.82;;;;;;;23.41;90.92;102067.34;7381474;19;20089;-74
2022/08/12 06:55:56;;;;;;;16.90;8.68;;;;;;;23.52;89.07;102064.44;7385044;19;20094;-73
2022/08/12 06:58:31;;;;;;;12.00;7.72;;;;;;;23.58;87.24;102069.69;7381078;19;20014;-74
2022/08/12 07:01:04;;;;;;;13.05;7.95;;;;;;;23.66;84.60;102070.41;7372765;19;20010;-75
2022/08/12 07:03:35;;;;;;;11.68;7.43;;;;;;;23.63;84.14;102066.91;7363565;19;20097;-75
2022/08/12 07:06:10;;;;;;;12.55;7.65;;;;;;;23.92;83.61;102064.44;7369894;19;19999;-74
2022/08/12 07:08:42;;;;;;;12.90;7.80;;;;;;;24.24;83.19;102069.06;7375766;19;20039;-78
2022/08/12 07:11:14;;;;;;;12.70;8.20;;;;;;;24.23;80.21;102069.09;7380522;19;20791;-80
2022/08/12 07:13:49;;;;;;;12.38;7.47;;;;;;;24.41;79.41;102061.50;7372170;19;20022;-77
2022/08/12 07:17:00;;;;;;;13.63;8.27;;;;;;;24.46;78.82;102072.13;7383299;19;20058;-78
2022/08/12 07:19:35;;;;;;;14.48;7.65;;;;;;;24.69;77.18;102063.50;7381708;19;20078;-79
2022/08/12 07:22:17;;;;;;;12.23;7.57;;;;;;;24.83;77.36;102064.03;7386395;19;20012;-80
2022/08/12 07:25:29;;;;;;;16.10;7.78;;;;;;;25.00;76.69;102068.94;7388975;19;20080;-77
2022/08/12 07:27:44;;;;;;;14.30;8.50;;;;;;;25.04;74.25;102066.13;7377595;19;20014;-76
2022/08/12 07:30:14;;;;;;;14.18;7.93;;;;;;;25.21;74.44;102070.16;7378840;19;20018;-74
2022/08/12 07:32:46;;;;;;;14.95;8.10;;;;;;;25.30;74.04;102065.41;7375287;19;20486;-75
2022/08/12 07:35:16;;;;;;;12.77;7.32;;;;;;;25.45;73.50;102064.06;7372911;19;20019;-75
2022/08/12 07:37:52;;;;;;;13.60;7.18;;;;;;;25.56;72.19;102064.63;7369154;19;20022;-74
2022/08/12 07:40:24;;;;;;;14.07;7.90;;;;;;;25.53;70.29;102075.47;7373909;19;20011;-75
2022/08/12 07:42:55;;;;;;;12.35;7.13;;;;;;;25.74;68.77;102069.50;7375574;19;20048;-75
2022/08/12 07:45:27;;;;;;;11.70;7.90;;;;;;;25.92;67.74;102072.53;7375299;19;20044;-74
2022/08/12 07:47:57;;;;;;;17.38;8.75;;;;;;;25.94;67.11;102070.69;7376859;19;20015;-73
2022/08/12 07:50:30;;;;;;;12.05;7.75;;;;;;;26.05;66.19;102074.78;7375305;19;20010;-73
2022/08/12 07:53:03;;;;;;;11.63;7.07;;;;;;;26.46;66.09;102069.00;7371132;19;20271;-73
2022/08/12 07:55:35;;;;;;;;;;;;;;;26.68;65.22;102070.03;7373166;19;20092;-74
2022/08/12 07:58:08;;;;;;;12.52;6.65;;;;;;;26.77;64.06;102069.72;7374933;19;19927;-74
2022/08/12 08:00:40;;;;;;;11.80;7.32;;;;;;;26.82;62.98;102081.22;7381210;19;20006;-76
2022/08/12 08:03:11;;;;;;;9.98;6.30;;;;;;;27.11;61.56;102084.69;7377202;19;20045;-77
2022/08/12 08:05:45;;;;;;;10.95;6.47;;;;;;;27.23;61.02;102077.06;7375732;19;20010;-76
2022/08/12 08:08:19;;;;;;;14.27;7.55;;;;;;;26.96;60.90;102080.72;7377277;19;20010;-76
2022/08/12 08:10:51;;;;;;;11.90;7.45;;;;;;;26.93;59.18;102081.72;7378315;19;20031;-76
2022/08/12 08:13:19;;;;;;;11.75;7.30;;;;;;;27.10;59.55;102083.81;7372390;19;20015;-77
2022/08/12 08:15:52;;;;;;;12.13;6.40;;;;;;;27.24;59.14;102076.13;7376910;19;20102;-76
2022/08/12 08:18:32;;;;;;;12.15;6.72;;;;;;;27.52;59.24;102073.28;7376436;19;20451;-74
2022/08/12 08:21:09;;;;;;;14.45;7.68;;;;;;;27.49;57.92;102072.50;7373475;19;20018;-75
2022/08/12 08:26:34;;;;;;;14.55;8.63;;;;;;;27.81;57.75;102082.09;7374971;19;20010;-76
2022/08/12 08:29:04;;;;;;;12.75;7.07;;;;;;;27.95;57.41;102077.03;7376422;19;20037;-75
2022/08/12 08:31:34;;;;;;;13.48;7.80;;;;;;;27.95;57.37;102079.72;7380536;19;20014;-75
2022/08/12 08:34:05;;;;;;;11.15;6.82;;;;;;;28.29;56.15;102077.44;7379495;19;20015;-75
2022/08/12 08:36:56;;;;;;;14.77;7.88;;;;;;;28.39;54.33;102077.06;7382828;19;20585;-75
2022/08/12 08:39:38;;;;;;;10.63;7.07;;;;;;;28.24;54.70;102082.13;7382588;19;20018;-75
2022/08/12 08:44:50;;;;;;;12.47;7.97;;;;;;;28.70;54.40;102069.41;7380414;19;20010;-76
2022/08/12 08:47:28;;;;;;;12.90;7.82;;;;;;;28.80;54.13;102070.78;7377728;19;20007;-77
2022/08/12 08:50:01;;;;;;;11.37;7.63;;;;;;;28.66;54.33;102073.19;7379164;19;20019;-75
2022/08/12 08:52:38;;;;;;;13.18;7.93;;;;;;;28.86;53.52;102070.53;7378865;19;20015;-75
2022/08/12 08:55:15;;;;;;;11.73;7.78;;;;;;;29.00;53.44;102071.75;7380311;19;20011;-75
2022/08/12 08:57:56;;;;;;;14.20;7.50;;;;;;;29.19;52.59;102067.25;7374881;19;20746;-73
2022/08/12 09:00:29;;;;;;;10.90;7.53;;;;;;;29.19;53.52;102072.66;7374747;19;20018;-75
2022/08/12 09:03:03;;;;;;;14.35;8.05;;;;;;;29.02;53.42;102069.88;7375052;19;20449;-75
2022/08/12 09:05:56;;;;;;;12.13;7.45;;;;;;;29.07;53.08;102076.81;7376720;19;20010;-78
2022/08/12 09:08:32;;;;;;;12.05;7.13;;;;;;;29.44;52.69;102072.44;7377939;19;20085;-77
2022/08/12 09:14:09;;;;;;;12.43;7.15;;;;;;;29.53;53.01;102072.91;7378886;19;20365;-78
2022/08/12 09:16:49;;;;;;;10.70;6.60;;;;;;;29.85;50.32;102070.50;7380793;19;20057;-78
2022/08/12 09:19:25;;;;;;;13.15;6.90;;;;;;;29.98;49.81;102066.25;7381954;19;20006;-78
2022/08/12 09:22:01;;;;;;;16.75;7.80;;;;;;;29.92;48.88;102061.16;7381656;19;20478;-78
2022/08/12 09:24:47;;;;;;;10.95;6.85;;;;;;;30.30;49.50;102063.81;7383206;19;20024;-78
2022/08/12 09:27:22;;;;;;;10.57;7.22;;;;;;;30.03;49.82;102071.47;7382017;19;20017;-78
2022/08/12 09:30:15;;;;;;;14.23;6.95;;;;;;;30.21;47.52;102063.31;7391856;19;20007;-83
2022/08/12 09:32:51;;;;;;;11.13;6.93;;;;;;;30.25;47.71;102051.38;7400781;19;20017;-82
2022/08/12 09:35:43;;;;;;;11.93;7.05;;;;;;;30.24;47.50;102065.84;7393938;19;20047;-77
2022/08/12 09:38:16;;;;;;;12.23;7.20;;;;;;;30.51;44.71;102057.31;7393050;19;20035;-78
2022/08/12 09:41:00;;;;;;;10.43;6.03;;;;;;;30.67;45.55;102050.19;7392442;19;20018;-77
2022/08/12 09:47:06;;;;;;;10.95;7.05;;;;;;;30.86;45.76;102053.69;7387930;19;20014;-78
2022/08/12 09:49:39;;;;;;;8.73;6.70;;;;;;;30.63;44.70;102053.13;7388139;19;20010;-74
2022/08/12 09:52:14;;;;;;;9.98;6.40;;;;;;;30.93;45.35;102054.25;7382463;19;20018;-75
2022/08/12 09:54:44;;;;;;;11.07;6.78;;;;;;;30.83;45.77;102048.44;7381212;19;20070;-77
2022/08/12 09:57:21;;;;;;;11.40;6.68;;;;;;;31.17;45.37;102046.66;7385518;19;20364;-75
2022/08/12 10:00:15;;;;;;;13.43;6.53;;;;;;;31.37;43.69;102037.41;7382305;19;20557;-76
2022/08/12 10:03:09;;;;;;;9.57;5.97;;;;;;;31.30;44.12;102036.00;7382814;19;20025;-76
2022/08/12 10:06:04;;;;;;;8.23;6.22;;;;;;;31.34;44.41;102030.31;7378159;19;20023;-75
2022/08/12 10:08:54;;;;;;;8.90;6.22;;;;;;;31.61;43.09;102035.19;7375882;19;20015;-75
2022/08/12 10:14:26;;;;;;;9.77;6.40;;;;;;;31.98;42.75;102031.28;7378725;19;20017;-75
2022/08/12 10:17:09;;;;;;;11.60;6.28;;;;;;;31.69;42.78;102028.41;7377736;19;20010;-74
2022/08/12 10:19:41;;;;;;;7.78;5.38;;;;;;;31.95;42.52;102024.19;7384700;19;20477;-77
2022/08/12 10:22:20;;;;;;;9.48;6.00;;;;;;;32.09;41.40;102018.84;7386888;19;20092;-77
2022/08/12 10:31:00;;;;;;;9.47;5.53;;;;;;;31.85;39.85;102014.84;7390689;19;20117;-77
2022/08/12 10:33:39;;;;;;;9.05;5.40;;;;;;;32.26;39.79;102011.53;7385639;19;20006;-78
2022/08/12 10:36:32;;;;;;;8.75;5.68;;;;;;;32.11;38.70;102014.19;7381097;19;20458;-76
2022/08/12 10:39:13;;;;;;;9.15;5.50;;;;;;;32.22;38.59;102004.56;7383058;19;20014;-76
2022/08/12 10:45:04;;;;;;;8.23;5.15;;;;;;;32.44;39.92;102005.91;7387971;19;20737;-75
2022/08/12 10:47:39;;;;;;;8.57;5.57;;;;;;;32.34;38.94;101993.84;7384787;19;20010;-75
2022/08/12 10:50:36;;;;;;;8.43;5.22;;;;;;;32.78;37.80;101999.31;7385519;19;20633;-77
2022/08/12 10:53:28;;;;;;;8.27;4.93;;;;;;;32.86;38.39;102000.69;7390509;19;20007;-83
2022/08/12 10:56:17;;;;;;;10.88;5.53;;;;;;;32.85;37.04;101999.81;7409047;19;20015;-84
2022/08/12 10:58:47;;;;;;;7.40;5.22;;;;;;;32.45;36.19;101993.19;7407444;19;20022;-83
2022/08/12 11:01:18;;;;;;;9.35;5.38;;;;;;;32.60;36.65;101981.41;7391679;19;20018;-81
2022/08/12 11:04:09;;;;;;;8.55;5.22;;;;;;;32.94;35.52;101979.34;7407639;19;20033;-83
2022/08/12 11:07:05;;;;;;;10.45;5.60;;;;;;;32.91;36.02;101984.97;7412647;19;20011;-82
2022/08/12 11:09:57;;;;;;;8.15;4.90;;;;;;;32.88;35.18;101971.56;7412951;19;20022;-79
2022/08/12 11:12:36;;;;;;;8.93;5.28;;;;;;;32.90;33.69;101991.38;7401826;19;20010;-80
2022/08/12 11:15:27;;;;;;;9.40;4.95;;;;;;;33.14;33.48;101982.53;7409949;19;20014;-74
2022/08/12 11:18:18;;;;;;;11.48;4.82;;;;;;;32.92;34.13;101978.56;7378015;19;20015;-74
2022/08/12 11:20:53;;;;;;;7.50;5.07;;;;;;;32.82;32.76;101976.41;7379168;19;20010;-75
2022/08/12 11:23:31;;;;;;;8.35;5.00;;;;;;;32.80;33.09;101964.78;7384800;19;20018;-76
2022/08/12 11:26:08;;;;;;;8.63;5.30;;;;;;;33.50;32.60;101966.69;7378935;19;20363;-75
2022/08/12 11:28:40;;;;;;;9.27;5.10;;;;;;;33.41;32.46;101960.88;7376366;19;20469;-75
2022/08/12 11:31:14;;;;;;;8.65;5.07;;;;;;;33.58;31.85;101951.59;7376879;19;20041;-75
2022/08/12 11:33:48;;;;;;;8.77;5.05;;;;;;;33.46;31.33;101952.41;7375722;19;20501;-75
2022/08/12 11:36:38;;;;;;;7.50;5.40;;;;;;;33.27;32.15;101946.41;7379465;19;20070;-74
2022/08/12 11:39:31;;;;;;;8.43;5.78;;;;;;;33.17;32.69;101957.00;7377916;19;20015;-76
2022/08/12 11:42:21;;;;;;;9.80;5.43;;;;;;;33.08;33.03;101950.31;7376155;19;20469;-76
2022/08/12 11:45:05;;;;;;;6.60;4.88;;;;;;;33.19;32.97;101941.47;7377279;19;20017;-75
2022/08/12 11:48:03;;;;;;;9.18;4.95;;;;;;;33.28;31.73;101940.88;7362320;19;20014;-72
2022/08/12 11:50:44;;;;;;;9.10;4.82;;;;;;;33.20;31.86;101945.94;7364648;19;20019;-74
2022/08/12 11:53:16;;;;;;;9.32;5.50;;;;;;;33.25;32.05;101932.94;7375447;19;20525;-75
2022/08/12 11:56:12;;;;;;;9.48;5.22;;;;;;;33.59;31.15;101937.03;7372187;19;20070;-73
2022/08/12 11:58:44;;;;;;;10.88;5.45;;;;;;;33.55;30.91;101934.63;7372818;19;20498;-74
2022/08/12 12:01:35;;;;;;;9.02;5.20;;;;;;;33.91;30.80;101936.75;7376934;19;20010;-74
2022/08/12 12:04:25;;;;;;;8.82;4.90;;;;;;;33.92;31.23;101933.06;7374716;19;20011;-74
2022/08/12 12:07:01;;;;;;;8.38;5.10;;;;;;;33.85;31.15;101929.88;7373546;19;20011;-73
2022/08/12 12:09:39;;;;;;;9.55;5.13;;;;;;;33.72;30.80;101926.22;7374933;19;20548;-71
2022/08/12 12:12:27;;;;;;;8.70;5.00;;;;;;;33.69;29.69;101924.56;7373925;19;20010;-74
2022/08/12 12:15:00;;;;;;;6.88;4.97;;;;;;;33.85;30.56;101932.59;7373549;19;20023;-73
2022/08/12 12:17:41;;;;;;;7.38;5.00;;;;;;;33.05;30.87;101930.63;7375120;19;20048;-76
2022/08/12 12:20:13;;;;;;;7.30;5.32;;;;;;;33.05;30.82;101926.06;7375783;19;20085;-76
2022/08/12 12:22:44;;;;;;;8.57;5.28;;;;;;;33.00;31.01;101916.44;7375021;19;20021;-75
2022/08/12 12:25:14;;;;;;;7.22;5.03;;;;;;;33.10;30.69;101920.31;7374566;19;20003;-76
2022/08/12 12:27:57;;;;;;;9.38;4.88;;;;;;;33.72;29.48;101913.47;7370279;19;20011;-72
2022/08/12 12:30:36;;;;;;;8.50;5.30;;;;;;;33.78;30.00;101918.50;7370708;19;20010;-74
2022/08/12 12:33:09;;;;;;;9.85;5.00;;;;;;;33.60;29.60;101916.16;7376343;19;20010;-73
2022/08/12 12:35:46;;;;;;;15.88;6.32;;;;;;;33.92;29.73;101911.28;7375576;19;20010;-73
2022/08/12 12:38:40;;;;;;;8.23;5.30;;;;;;;34.07;29.30;101904.81;7371688;19;20025;-72
2022/08/12 12:41:10;;;;;;;9.25;5.30;;;;;;;34.59;28.16;101901.16;7371220;19;20006;-71
2022/08/12 12:43:48;;;;;;;7.15;4.45;;;;;;;34.39;28.46;101903.44;7368725;19;20011;-73
2022/08/12 12:46:35;;;;;;;8.38;4.80;;;;;;;34.15;28.66;101901.53;7371599;19;20019;-73
2022/08/12 12:49:08;;;;;;;;;;;;;;;33.99;27.81;101899.88;7371592;19;20011;-73
2022/08/12 12:51:44;;;;;;;7.55;5.00;;;;;;;34.18;28.10;101901.34;7374544;19;20350;-72
2022/08/12 12:54:36;;;;;;;8.52;4.80;;;;;;;34.51;27.60;101892.66;7373359;19;20118;-72
2022/08/12 12:57:13;;;;;;;7.45;4.60;;;;;;;34.41;27.56;101897.88;7378807;19;20086;-74
2022/08/12 13:00:13;;;;;;;10.13;5.38;;;;;;;34.30;27.82;101890.47;7374171;19;20046;-72
2022/08/12 13:02:41;;;;;;;9.05;4.50;;;;;;;34.25;28.16;101887.19;7371843;19;20530;-73
2022/08/12 13:05:11;;;;;;;9.63;5.00;;;;;;;34.34;28.66;101877.50;7377713;19;20016;-74
2022/08/12 13:07:43;;;;;;;7.70;5.28;;;;;;;34.23;27.78;101878.25;7377780;19;20022;-73
2022/08/12 13:10:26;;;;;;;8.90;4.68;;;;;;;34.03;28.45;101887.81;7376548;19;20125;-73
2022/08/12 13:13:08;;;;;;;6.80;4.47;;;;;;;34.21;28.63;101877.50;7375252;19;20010;-71
2022/08/12 13:16:09;;;;;;;9.65;5.85;;;;;;;34.17;28.50;101885.97;7375096;19;20007;-77
2022/08/12 13:18:48;;;;;;;8.43;4.45;;;;;;;34.20;28.25;101873.03;7376243;19;20011;-74
2022/08/12 13:21:29;;;;;;;8.23;4.82;;;;;;;33.81;28.67;101871.19;7383747;19;20038;-78
2022/08/12 13:24:17;;;;;;;8.73;5.10;;;;;;;34.18;28.72;101874.09;7386392;19;20010;-81
2022/08/12 13:26:48;;;;;;;7.72;4.85;;;;;;;34.24;28.55;101869.09;7387972;19;20609;-73
2022/08/12 13:29:18;;;;;;;9.38;5.47;;;;;;;34.33;28.70;101873.91;7371353;19;20010;-75
2022/08/12 13:31:56;;;;;;;7.13;4.63;;;;;;;34.55;28.00;101875.13;7383106;19;20114;-76
2022/08/12 13:34:54;;;;;;;10.13;4.82;;;;;;;34.51;27.82;101874.47;7376181;19;20022;-78
2022/08/12 13:37:46;;;;;;;8.27;5.07;;;;;;;35.15;27.53;101858.91;7377288;19;20035;-75
2022/08/12 13:40:25;;;;;;;8.27;4.88;;;;;;;35.43;27.42;101865.03;7375069;19;20021;-74
2022/08/12 13:43:05;;;;;;;8.68;4.90;;;;;;;35.64;26.92;101869.72;7370830;19;20007;-75
2022/08/12 13:45:43;;;;;;;16.08;5.80;;;;;;;35.26;26.87;101864.44;7366629;19;20010;-79
2022/08/12 13:48:17;;;;;;;7.38;5.28;;;;;;;35.03;27.49;101855.25;7372832;19;20010;-80
2022/08/12 13:50:48;;;;;;;8.88;4.85;;;;;;;35.39;26.98;101859.81;7373580;19;20074;-76
2022/08/12 13:53:19;;;;;;;7.22;4.72;;;;;;;35.52;27.15;101856.16;7367918;19;20249;-74
2022/08/12 13:55:55;;;;;;;8.80;4.95;;;;;;;35.58;27.07;101850.22;7236362;19;132864;-74
2022/08/12 13:58:36;;;;;;;7.53;4.90;;;;;;;35.58;27.02;101840.19;7371711;19;20022;-72
2022/08/12 14:01:09;;;;;;;6.97;4.78;;;;;;;34.70;27.52;101846.75;7373381;19;20023;-74
2022/08/12 14:03:43;;;;;;;7.50;5.30;;;;;;;34.80;27.58;101849.69;7376073;19;20014;-75